Time,TemperatureF,DewpointF,PressureIn,WindDirection,WindDirectionDegrees,WindSpeedMPH,WindSpeedGustMPH,Humidity,HourlyPrecipIn,Conditions,Clouds,dailyrainin,SoftwareType,DateUTC
2013-10-08 00:00:00,67.3,64.9,30.16,SSW,196,0.0,2.0,92,0.00,RA,,0.00,WeatherDisplay:10.37,2013-10-07 22:00:00,
2013-10-08 00:10:00,67.2,64.8,30.15,SSW,196,0.0,1.0,92,0.00,CLR,,0.00,WeatherDisplay:10.37,2013-10-07 22:10:00,
2013-10-08 00:20:00,67.2,64.8,30.15,SSW,196,0.0,0.0,92,0.00,CLR,,0.00,WeatherDisplay:10.37,2013-10-07 22:20:00,
2013-10-08 00:30:00,67.0,64.6,30.15,SSW,196,0.0,0.0,92,0.00,CLR,,0.00,WeatherDisplay:10.37,2013-10-07 22:30:00,
2013-10-08 00:40:00,67.0,64.6,30.15,SSW,196,0.0,3.0,92,0.00,CLR,,0.00,WeatherDisplay:10.37,2013-10-07 22:40:00,
2013-10-08 00:50:00,67.0,64.6,30.15,SSW,196,0.0,1.0,92,0.00,CLR,,0.00,WeatherDisplay:10.37,2013-10-07 22:50:00,
2013-10-08 01:00:00,66.9,64.8,30.16,SSW,196,0.0,0.0,93,0.00,CLR,,0.00,WeatherDisplay:10.37,2013-10-07 23:00:00,
2013-10-08 01:10:00,67.0,64.9,30.15,SSW,196,0.0,1.0,93,0.00,CLR,,0.00,WeatherDisplay:10.37,2013-10-07 23:10:00,
2013-10-08 01:20:00,67.0,64.9,30.16,SSW,196,0.0,0.0,93,0.00,CLR,,0.00,WeatherDisplay:10.37,2013-10-07 23:20:00,
2013-10-08 01:30:00,67.0,64.9,30.16,SSW,196,0.0,2.0,93,0.00,CLR,,0.00,WeatherDisplay:10.37,2013-10-07 23:30:00,
2013-10-08 01:40:00,66.9,64.8,30.16,SSW,196,0.0,2.0,93,0.00,CLR,,0.00,WeatherDisplay:10.37,2013-10-07 23:40:00,
2013-10-08 01:50:00,66.8,64.7,30.16,SSW,196,1.0,2.0,93,0.00,CLR,,0.00,WeatherDisplay:10.37,2013-10-07 23:50:00,
2013-10-08 02:00:00,66.8,64.7,30.16,SSW,196,0.0,2.0,93,0.00,CLR,,0.00,WeatherDisplay:10.37,2013-10-08 00:00:00,
2013-10-08 02:10:00,66.8,64.7,30.16,SSW,196,0.0,2.0,93,0.00,CLR,,0.00,WeatherDisplay:10.37,2013-10-08 00:10:00,
2013-10-08 02:20:00,66.8,65.0,30.16,SSW,196,0.0,1.0,94,0.00,CLR,,0.00,WeatherDisplay:10.37,2013-10-08 00:20:00,
2013-10-08 02:30:00,66.7,64.9,30.15,SSW,196,0.0,2.0,94,0.00,CLR,,0.00,WeatherDisplay:10.37,2013-10-08 00:30:00,
2013-10-08 02:40:00,66.7,64.9,30.15,SSW,196,1.0,3.0,94,0.00,CLR,,0.00,WeatherDisplay:10.37,2013-10-08 00:40:00,
2013-10-08 02:50:00,66.6,64.8,30.15,SSW,196,0.0,1.0,94,0.00,CLR,,0.00,WeatherDisplay:10.37,2013-10-08 00:50:00,
2013-10-08 03:00:00,66.5,64.7,30.14,SSW,196,0.0,3.0,94,0.00,CLR,,0.00,WeatherDisplay:10.37,2013-10-08 01:00:00,
2013-10-08 03:10:00,66.3,64.5,30.14,SSW,196,0.0,1.0,94,0.00,CLR,,0.00,WeatherDisplay:10.37,2013-10-08 01:10:00,
2013-10-08 03:20:00,66.2,64.4,30.14,SSW,196,0.0,2.0,94,0.00,CLR,,0.00,WeatherDisplay:10.37,2013-10-08 01:20:00,
2013-10-08 03:30:00,66.1,64.3,30.15,SSW,196,0.0,1.0,94,0.01,RA,,0.01,WeatherDisplay:10.37,2013-10-08 01:30:00,
2013-10-08 03:40:00,65.9,64.1,30.14,SSW,196,0.0,0.0,94,0.00,CLR,,0.01,WeatherDisplay:10.37,2013-10-08 01:40:00,
2013-10-08 03:50:00,65.8,64.0,30.14,SSW,196,0.0,1.0,94,0.00,CLR,,0.01,WeatherDisplay:10.37,2013-10-08 01:50:00,
2013-10-08 04:00:00,65.6,63.8,30.13,SSW,196,0.0,0.0,94,0.00,CLR,,0.01,WeatherDisplay:10.37,2013-10-08 02:00:00,
2013-10-08 04:20:00,65.2,63.4,30.12,SSW,196,0.0,0.0,94,0.00,CLR,,0.01,WeatherDisplay:10.37,2013-10-08 02:20:00,
2013-10-08 04:30:00,65.2,63.7,30.13,SSW,196,0.0,0.0,95,0.00,CLR,,0.01,WeatherDisplay:10.37,2013-10-08 02:30:00,
2013-10-08 04:40:00,65.1,63.6,30.13,SSW,196,0.0,0.0,95,0.00,CLR,,0.01,WeatherDisplay:10.37,2013-10-08 02:40:00,
2013-10-08 04:50:00,65.0,63.5,30.13,SSW,196,0.0,1.0,95,0.00,CLR,,0.01,WeatherDisplay:10.37,2013-10-08 02:50:00,
2013-10-08 05:00:00,64.9,63.5,30.13,SSW,196,0.0,1.0,95,0.00,CLR,,0.01,WeatherDisplay:10.37,2013-10-08 03:00:00,
2013-10-08 05:10:00,64.9,63.4,30.13,SSW,196,0.0,0.0,95,0.00,CLR,,0.01,WeatherDisplay:10.37,2013-10-08 03:10:00,
2013-10-08 05:20:00,64.8,63.4,30.12,SSW,196,0.0,1.0,95,0.00,CLR,,0.01,WeatherDisplay:10.37,2013-10-08 03:20:00,
2013-10-08 05:30:00,64.7,63.2,30.13,SSW,196,0.0,2.0,95,0.00,CLR,,0.01,WeatherDisplay:10.37,2013-10-08 03:30:00,
2013-10-08 05:40:00,64.7,62.9,30.13,SSW,196,0.0,0.0,94,0.00,CLR,,0.01,WeatherDisplay:10.37,2013-10-08 03:40:00,
2013-10-08 05:50:00,64.8,63.3,30.13,SSW,196,0.0,1.0,95,0.00,CLR,,0.01,WeatherDisplay:10.37,2013-10-08 03:50:00,
2013-10-08 06:00:00,64.8,63.0,30.12,SSW,196,0.0,1.0,94,0.00,CLR,,0.01,WeatherDisplay:10.37,2013-10-08 04:00:00,
2013-10-08 06:10:00,64.7,62.9,30.13,SSW,196,0.0,1.0,94,0.00,CLR,,0.01,WeatherDisplay:10.37,2013-10-08 04:10:00,
2013-10-08 06:20:00,64.8,63.0,30.13,SSW,196,0.0,2.0,94,0.01,RA,,0.02,WeatherDisplay:10.37,2013-10-08 04:20:00,
2013-10-08 06:30:00,64.7,62.9,30.13,SSW,196,0.0,1.0,94,0.00,CLR,,0.02,WeatherDisplay:10.37,2013-10-08 04:30:00,
2013-10-08 06:40:00,64.7,62.6,30.13,SSW,196,0.0,1.0,93,0.02,RA,,0.03,WeatherDisplay:10.37,2013-10-08 04:40:00,
2013-10-08 06:50:00,64.3,62.0,30.13,SSE,168,3.0,6.0,92,0.04,RA,,0.07,WeatherDisplay:10.37,2013-10-08 04:50:00,
2013-10-08 07:00:00,63.8,61.7,30.13,SSE,162,0.0,3.0,93,0.04,RA,,0.11,WeatherDisplay:10.37,2013-10-08 05:00:00,
2013-10-08 07:10:00,63.7,61.6,30.13,ESE,105,0.0,3.0,93,0.01,RA,,0.12,WeatherDisplay:10.37,2013-10-08 05:10:00,
2013-10-08 07:20:00,63.6,61.5,30.13,ESE,123,0.0,1.0,93,0.00,CLR,,0.12,WeatherDisplay:10.37,2013-10-08 05:20:00,
2013-10-08 07:30:00,63.8,61.7,30.13,ESE,123,0.0,1.0,93,0.00,CLR,,0.12,WeatherDisplay:10.37,2013-10-08 05:30:00,
2013-10-08 07:40:00,64.2,62.2,30.13,ESE,123,0.0,2.0,93,0.00,CLR,,0.12,WeatherDisplay:10.37,2013-10-08 05:40:00,
2013-10-08 07:50:00,64.6,62.5,30.13,ESE,123,0.0,1.0,93,0.00,CLR,,0.12,WeatherDisplay:10.37,2013-10-08 05:50:00,
2013-10-08 08:00:00,64.9,62.2,30.13,ESE,123,0.0,1.0,91,0.00,CLR,,0.12,WeatherDisplay:10.37,2013-10-08 06:00:00,
2013-10-08 08:10:00,65.7,63.0,30.13,ESE,123,0.0,1.0,91,0.00,CLR,,0.12,WeatherDisplay:10.37,2013-10-08 06:10:00,
2013-10-08 08:20:00,66.1,62.4,30.14,ESE,123,0.0,2.0,88,0.01,RA,,0.13,WeatherDisplay:10.37,2013-10-08 06:20:00,
2013-10-08 08:30:00,66.2,62.2,30.14,ESE,123,0.0,1.0,87,0.01,RA,,0.13,WeatherDisplay:10.37,2013-10-08 06:30:00,
2013-10-08 08:40:00,65.9,62.2,30.15,ESE,123,0.0,2.0,88,0.00,CLR,,0.13,WeatherDisplay:10.37,2013-10-08 06:40:00,
2013-10-08 08:50:00,65.7,62.1,30.15,ESE,123,0.0,1.0,88,0.00,CLR,,0.13,WeatherDisplay:10.37,2013-10-08 06:50:00,
2013-10-08 09:00:00,65.2,60.9,30.15,ESE,123,0.0,1.0,86,0.02,RA,,0.15,WeatherDisplay:10.37,2013-10-08 07:00:00,
2013-10-08 09:10:00,64.9,61.3,30.16,ESE,123,0.0,3.0,88,0.02,RA,,0.17,WeatherDisplay:10.37,2013-10-08 07:10:00,
2013-10-08 09:20:00,64.7,61.4,30.16,SE,137,0.0,3.0,89,0.05,RA,,0.22,WeatherDisplay:10.37,2013-10-08 07:20:00,
2013-10-08 09:30:00,64.7,61.7,30.16,SE,140,0.0,2.0,90,0.00,,,0.22,WeatherDisplay:10.37,2013-10-08 07:30:00,
2013-10-08 09:40:00,65.2,61.8,30.16,ESE,117,0.0,5.0,89,0.00,CLR,,0.22,WeatherDisplay:10.37,2013-10-08 07:40:00,
2013-10-08 09:50:00,65.4,61.7,30.16,SE,127,0.0,4.0,88,0.00,CLR,,0.22,WeatherDisplay:10.37,2013-10-08 07:50:00,
2013-10-08 10:00:00,65.6,61.6,30.17,ESE,118,0.0,3.0,87,0.01,RA,,0.23,WeatherDisplay:10.37,2013-10-08 08:00:00,
2013-10-08 10:10:00,65.7,61.7,30.17,East,98,2.0,7.0,87,0.07,RA,,0.30,WeatherDisplay:10.37,2013-10-08 08:10:00,
2013-10-08 10:20:00,65.1,61.7,30.17,NE,56,0.0,3.0,89,0.04,RA,,0.34,WeatherDisplay:10.37,2013-10-08 08:20:00,
2013-10-08 10:30:00,64.6,61.6,30.17,ENE,61,3.0,10.0,90,0.01,RA,,0.35,WeatherDisplay:10.37,2013-10-08 08:30:00,
2013-10-08 10:40:00,64.4,61.1,30.17,East,92,0.0,5.0,89,0.00,CLR,,0.35,WeatherDisplay:10.37,2013-10-08 08:40:00,
2013-10-08 10:50:00,65.2,61.8,30.17,SE,142,0.0,3.0,89,0.00,CLR,,0.35,WeatherDisplay:10.37,2013-10-08 08:50:00,
2013-10-08 11:00:00,66.2,62.5,30.18,ESE,106,0.0,5.0,88,0.00,CLR,,0.35,WeatherDisplay:10.37,2013-10-08 09:00:00,
2013-10-08 11:10:00,66.9,62.9,30.18,NE,56,1.0,5.0,87,0.00,CLR,,0.35,WeatherDisplay:10.37,2013-10-08 09:10:00,
2013-10-08 11:20:00,66.9,62.2,30.17,NE,54,1.0,5.0,85,0.00,CLR,,0.35,WeatherDisplay:10.37,2013-10-08 09:20:00,
2013-10-08 11:30:00,67.1,62.4,30.17,East,93,0.0,2.0,85,0.00,CLR,,0.35,WeatherDisplay:10.37,2013-10-08 09:30:00,
2013-10-08 11:40:00,67.1,61.7,30.17,ENE,58,0.0,3.0,83,0.00,CLR,,0.35,WeatherDisplay:10.37,2013-10-08 09:40:00,
2013-10-08 11:50:00,67.1,61.1,30.17,East,82,0.0,6.0,81,0.00,CLR,,0.35,WeatherDisplay:10.37,2013-10-08 09:50:00,
2013-10-08 12:00:00,67.1,60.7,30.17,ESE,109,1.0,5.0,80,0.00,CLR,,0.35,WeatherDisplay:10.37,2013-10-08 10:00:00,
2013-10-08 12:10:00,67.4,61.4,30.17,ESE,106,0.0,1.0,81,0.00,CLR,,0.35,WeatherDisplay:10.37,2013-10-08 10:10:00,
2013-10-08 12:20:00,67.7,61.3,30.17,East,99,0.0,3.0,80,0.00,CLR,,0.35,WeatherDisplay:10.37,2013-10-08 10:20:00,
2013-10-08 12:30:00,68.9,61.4,30.16,ESE,103,1.0,6.0,77,0.01,RA,,0.35,WeatherDisplay:10.37,2013-10-08 10:30:00,
2013-10-08 12:40:00,70.2,62.3,30.17,East,97,1.0,5.0,76,0.00,CLR,,0.35,WeatherDisplay:10.37,2013-10-08 10:40:00,
2013-10-08 12:50:00,71.1,63.2,30.17,SE,139,0.0,6.0,76,0.00,CLR,,0.35,WeatherDisplay:10.37,2013-10-08 10:50:00,
2013-10-08 13:00:00,71.1,62.8,30.16,ENE,74,0.0,4.0,75,0.00,CLR,,0.35,WeatherDisplay:10.37,2013-10-08 11:00:00,
2013-10-08 13:10:00,70.7,62.8,30.16,ESE,110,1.0,5.0,76,0.00,CLR,,0.35,WeatherDisplay:10.37,2013-10-08 11:10:00,
2013-10-08 13:20:00,70.4,62.4,30.16,East,79,2.0,10.0,76,0.00,CLR,,0.35,WeatherDisplay:10.37,2013-10-08 11:20:00,
2013-10-08 13:30:00,69.5,62.3,30.16,East,84,3.0,8.0,78,0.00,CLR,,0.35,WeatherDisplay:10.37,2013-10-08 11:30:00,
2013-10-08 13:40:00,69.4,63.0,30.15,East,101,1.0,8.0,80,0.00,CLR,,0.35,WeatherDisplay:10.37,2013-10-08 11:40:00,
2013-10-08 13:50:00,70.2,63.0,30.15,East,101,2.0,8.0,78,0.00,CLR,,0.35,WeatherDisplay:10.37,2013-10-08 11:50:00,
2013-10-08 14:00:00,69.7,61.4,30.15,East,92,1.0,9.0,75,0.00,CLR,,0.35,WeatherDisplay:10.37,2013-10-08 12:00:00,
2013-10-08 14:10:00,70.4,61.7,30.14,SE,126,0.0,3.0,74,0.00,CLR,,0.35,WeatherDisplay:10.37,2013-10-08 12:10:00,
2013-10-08 14:20:00,71.3,61.8,30.14,East,99,1.0,5.0,72,0.00,CLR,,0.35,WeatherDisplay:10.37,2013-10-08 12:20:00,
2013-10-08 14:30:00,70.8,62.1,30.14,SE,145,2.0,6.0,74,0.00,CLR,,0.35,WeatherDisplay:10.37,2013-10-08 12:30:00,
2013-10-08 14:40:00,71.2,62.9,30.13,SE,130,1.0,7.0,75,0.00,CLR,,0.35,WeatherDisplay:10.37,2013-10-08 12:40:00,
2013-10-08 14:50:00,71.3,62.6,30.13,ESE,123,1.0,8.0,74,0.00,CLR,,0.35,WeatherDisplay:10.37,2013-10-08 12:50:00,
2013-10-08 15:00:00,71.2,62.5,30.13,SE,135,2.0,9.0,74,0.00,CLR,,0.35,WeatherDisplay:10.37,2013-10-08 13:00:00,
2013-10-08 15:10:00,71.4,63.1,30.13,ESE,110,0.0,8.0,75,0.00,CLR,,0.35,WeatherDisplay:10.37,2013-10-08 13:10:00,
2013-10-08 15:20:00,71.9,62.4,30.14,ESE,119,2.0,9.0,72,0.00,CLR,,0.35,WeatherDisplay:10.37,2013-10-08 13:20:00,
2013-10-08 15:30:00,71.9,62.4,30.14,East,96,2.0,5.0,72,0.00,CLR,,0.35,WeatherDisplay:10.37,2013-10-08 13:30:00,
2013-10-08 15:40:00,72.5,62.9,30.15,SE,129,1.0,6.0,72,0.00,CLR,,0.35,WeatherDisplay:10.37,2013-10-08 13:40:00,
2013-10-08 15:50:00,72.8,63.2,30.15,SSE,147,0.0,4.0,72,0.00,CLR,,0.35,WeatherDisplay:10.37,2013-10-08 13:50:00,
2013-10-08 16:00:00,73.7,63.3,30.14,South,169,1.0,4.0,70,0.00,CLR,,0.35,WeatherDisplay:10.37,2013-10-08 14:00:00,
2013-10-08 16:10:00,72.5,62.5,30.14,SE,130,2.0,5.0,71,0.00,CLR,,0.35,WeatherDisplay:10.37,2013-10-08 14:10:00,
2013-10-08 16:20:00,71.7,62.6,30.14,ESE,111,1.0,4.0,73,0.00,CLR,,0.35,WeatherDisplay:10.37,2013-10-08 14:20:00,
2013-10-08 16:30:00,71.2,62.4,30.15,ESE,104,0.0,6.0,74,0.00,CLR,,0.35,WeatherDisplay:10.37,2013-10-08 14:30:00,
2013-10-08 16:40:00,70.9,62.6,30.15,East,92,1.0,6.0,75,0.00,CLR,,0.35,WeatherDisplay:10.37,2013-10-08 14:40:00,
2013-10-08 16:50:00,71.4,62.7,30.15,East,94,1.0,5.0,74,0.00,CLR,,0.35,WeatherDisplay:10.37,2013-10-08 14:50:00,
2013-10-08 17:00:00,70.8,62.1,30.14,East,100,2.0,6.0,74,0.00,CLR,,0.35,WeatherDisplay:10.37,2013-10-08 15:00:00,
2013-10-08 17:10:00,70.2,61.9,30.15,SE,140,0.0,5.0,75,0.00,CLR,,0.35,WeatherDisplay:10.37,2013-10-08 15:10:00,
2013-10-08 17:20:00,68.7,58.6,30.15,NW,312,6.0,9.0,70,0.00,CLR,,0.35,WeatherDisplay:10.37,2013-10-08 15:20:00,
2013-10-08 17:30:00,66.2,58.0,30.15,NW,319,6.0,12.0,75,0.00,CLR,,0.35,WeatherDisplay:10.37,2013-10-08 15:30:00,
2013-10-08 17:40:00,65.7,58.3,30.15,NNW,328,5.0,12.0,77,0.00,CLR,,0.35,WeatherDisplay:10.37,2013-10-08 15:40:00,
2013-10-08 17:50:00,65.6,58.6,30.15,NW,307,5.0,8.0,78,0.00,CLR,,0.35,WeatherDisplay:10.37,2013-10-08 15:50:00,
2013-10-08 18:00:00,65.5,58.5,30.15,NNW,332,5.0,7.0,78,0.00,CLR,,0.35,WeatherDisplay:10.37,2013-10-08 16:00:00,
2013-10-08 18:10:00,65.8,57.6,30.15,WNW,295,1.0,7.0,75,0.00,CLR,,0.35,WeatherDisplay:10.37,2013-10-08 16:10:00,
2013-10-08 18:20:00,66.1,58.3,30.15,NW,320,3.0,9.0,76,0.00,CLR,,0.35,WeatherDisplay:10.37,2013-10-08 16:20:00,
2013-10-08 18:30:00,66.0,57.5,30.16,NW,314,6.0,12.0,74,0.00,CLR,,0.35,WeatherDisplay:10.37,2013-10-08 16:30:00,
2013-10-08 18:40:00,65.9,56.2,30.15,NNW,327,3.0,9.0,71,0.00,CLR,,0.35,WeatherDisplay:10.37,2013-10-08 16:40:00,
2013-10-08 18:50:00,66.1,56.8,30.15,NW,321,1.0,6.0,72,0.00,CLR,,0.35,WeatherDisplay:10.37,2013-10-08 16:50:00,
2013-10-08 19:00:00,66.0,57.1,30.15,NW,320,1.0,5.0,73,0.00,CLR,,0.35,WeatherDisplay:10.37,2013-10-08 17:00:00,
2013-10-08 19:10:00,66.2,58.0,30.15,NW,323,0.0,4.0,75,0.00,CLR,,0.35,WeatherDisplay:10.37,2013-10-08 17:10:00,
2013-10-08 19:20:00,66.3,58.5,30.16,NNW,332,0.0,4.0,76,0.01,RA,,0.36,WeatherDisplay:10.37,2013-10-08 17:20:00,
2013-10-08 19:30:00,66.3,59.2,30.16,NNW,336,0.0,1.0,78,0.01,RA,,0.37,WeatherDisplay:10.37,2013-10-08 17:30:00,
2013-10-08 19:40:00,66.1,59.7,30.16,NNW,336,0.0,0.0,80,0.00,CLR,,0.37,WeatherDisplay:10.37,2013-10-08 17:40:00,
2013-10-08 19:50:00,65.8,59.8,30.16,NNW,336,0.0,1.0,81,0.00,CLR,,0.37,WeatherDisplay:10.37,2013-10-08 17:50:00,
2013-10-08 20:00:00,65.5,59.5,30.16,NNW,335,0.0,2.0,81,0.00,CLR,,0.37,WeatherDisplay:10.37,2013-10-08 18:00:00,
2013-10-08 20:10:00,65.4,59.8,30.16,NNW,334,0.0,1.0,82,0.00,CLR,,0.37,WeatherDisplay:10.37,2013-10-08 18:10:00,
2013-10-08 20:20:00,65.2,59.6,30.16,NNW,334,0.0,2.0,82,0.00,CLR,,0.37,WeatherDisplay:10.37,2013-10-08 18:20:00,
2013-10-08 20:30:00,65.1,59.5,30.16,NNW,334,0.0,3.0,82,0.00,CLR,,0.37,WeatherDisplay:10.37,2013-10-08 18:30:00,
2013-10-08 20:40:00,65.2,59.2,30.16,NW,325,0.0,3.0,81,0.00,CLR,,0.37,WeatherDisplay:10.37,2013-10-08 18:40:00,
2013-10-08 20:50:00,65.2,59.2,30.15,NW,325,0.0,2.0,81,0.00,CLR,,0.37,WeatherDisplay:10.37,2013-10-08 18:50:00,
2013-10-08 21:00:00,65.2,59.2,30.15,NW,325,0.0,2.0,81,0.00,CLR,,0.37,WeatherDisplay:10.37,2013-10-08 19:00:00,
2013-10-08 21:10:00,65.3,59.6,30.15,NW,325,0.0,1.0,82,0.00,CLR,,0.37,WeatherDisplay:10.37,2013-10-08 19:10:00,
2013-10-08 21:20:00,65.4,59.4,30.16,NW,325,0.0,1.0,81,0.00,CLR,,0.37,WeatherDisplay:10.37,2013-10-08 19:20:00,
2013-10-08 21:30:00,65.6,59.6,30.16,NW,325,0.0,3.0,81,0.00,CLR,,0.37,WeatherDisplay:10.37,2013-10-08 19:30:00,
2013-10-08 21:40:00,65.6,59.3,30.16,NW,325,0.0,2.0,80,0.00,CLR,,0.37,WeatherDisplay:10.37,2013-10-08 19:40:00,
2013-10-08 21:50:00,65.6,59.6,30.16,NW,325,0.0,1.0,81,0.00,CLR,,0.37,WeatherDisplay:10.37,2013-10-08 19:50:00,
2013-10-08 22:00:00,65.7,59.7,30.16,NW,325,0.0,1.0,81,0.00,CLR,,0.37,WeatherDisplay:10.37,2013-10-08 20:00:00,
2013-10-08 22:10:00,65.8,59.8,30.16,NNW,328,0.0,3.0,81,0.00,CLR,,0.37,WeatherDisplay:10.37,2013-10-08 20:10:00,
2013-10-08 22:20:00,65.7,59.7,30.15,NE,37,0.0,2.0,81,0.01,RA,,0.38,WeatherDisplay:10.37,2013-10-08 20:20:00,
2013-10-08 22:30:00,65.4,59.4,30.16,NNE,29,0.0,3.0,81,0.00,,,0.38,WeatherDisplay:10.37,2013-10-08 20:30:00,
2013-10-08 22:40:00,65.1,59.5,30.16,NE,53,0.0,1.0,82,0.00,CLR,,0.38,WeatherDisplay:10.37,2013-10-08 20:40:00,
2013-10-08 22:50:00,65.0,59.7,30.17,NE,53,0.0,1.0,83,0.00,CLR,,0.38,WeatherDisplay:10.37,2013-10-08 20:50:00,
2013-10-08 23:00:00,64.9,59.9,30.16,NE,53,0.0,0.0,84,0.00,CLR,,0.38,WeatherDisplay:10.37,2013-10-08 21:00:00,
2013-10-08 23:10:00,65.0,60.4,30.16,NE,53,0.0,2.0,85,0.00,CLR,,0.38,WeatherDisplay:10.37,2013-10-08 21:10:00,
2013-10-08 23:20:00,65.0,60.4,30.16,NE,53,0.0,1.0,85,0.00,CLR,,0.38,WeatherDisplay:10.37,2013-10-08 21:20:00,
2013-10-08 23:30:00,65.1,60.8,30.16,ENE,57,0.0,2.0,86,0.00,CLR,,0.38,WeatherDisplay:10.37,2013-10-08 21:30:00,
2013-10-08 23:40:00,65.0,61.0,30.16,East,93,0.0,5.0,87,0.00,CLR,,0.38,WeatherDisplay:10.37,2013-10-08 21:40:00,
2013-10-08 23:50:00,64.9,60.9,30.15,East,92,0.0,2.0,87,0.00,CLR,,0.38,WeatherDisplay:10.37,2013-10-08 21:50:00,